GLO1901 SBBV-SBEG
Flight info
| Callsign | GLO1901 |
|---|---|
| Flight time | 1h 1m |
| Altitude | 37000 |
| Route | ANBIX UM402 ARVUM |
| Aircraft | B737/M-SDFGIKLORWXY/LB1 |
Departure
| Time | 2026-05-06 01:00 |
|---|---|
| Airport | Atlas Brasil Cantanhede International Airport (SBBV) |
Arrival
| Time | 2026-05-06 02:02 |
|---|---|
| Airport | Eduardo Gomes International Airport (SBEG) |
| Time | Latitude | Longitude | Altitude | Speed | Heading |
|---|---|---|---|---|---|
| 2026-05-06 00:24 | 2.84227 | -60.69201 | 279 ft | 0 kts | 153° |
| 2026-05-06 00:41 | 2.84233 | -60.69204 | 278 ft | 2 kts | 152° |
| 2026-05-06 00:41 | 2.84250 | -60.69214 | 283 ft | 3 kts | 142° |
| 2026-05-06 00:41 | 2.84264 | -60.69228 | 278 ft | 3 kts | 122° |
| 2026-05-06 00:42 | 2.84271 | -60.69243 | 286 ft | 3 kts | 72° |
| 2026-05-06 00:42 | 2.84266 | -60.69250 | 284 ft | 1 kts | 33° |
| 2026-05-06 00:42 | 2.84263 | -60.69252 | 278 ft | 0 kts | 33° |
| 2026-05-06 00:48 | 2.84264 | -60.69252 | 284 ft | 1 kts | 33° |
| 2026-05-06 00:48 | 2.84279 | -60.69242 | 283 ft | 3 kts | 33° |
| 2026-05-06 00:48 | 2.84300 | -60.69237 | 278 ft | 4 kts | 349° |
| 2026-05-06 00:48 | 2.84323 | -60.69247 | 281 ft | 4 kts | 336° |
| 2026-05-06 00:49 | 2.84339 | -60.69263 | 278 ft | 3 kts | 281° |
| 2026-05-06 00:49 | 2.84331 | -60.69287 | 278 ft | 4 kts | 245° |
| 2026-05-06 00:49 | 2.84320 | -60.69309 | 280 ft | 4 kts | 244° |
| 2026-05-06 00:49 | 2.84310 | -60.69330 | 278 ft | 3 kts | 244° |
| 2026-05-06 00:50 | 2.84299 | -60.69351 | 278 ft | 3 kts | 244° |
| 2026-05-06 00:50 | 2.84289 | -60.69372 | 278 ft | 3 kts | 244° |
| 2026-05-06 00:50 | 2.84280 | -60.69392 | 280 ft | 3 kts | 244° |
| 2026-05-06 00:50 | 2.84270 | -60.69411 | 283 ft | 3 kts | 244° |
| 2026-05-06 00:51 | 2.84261 | -60.69429 | 278 ft | 3 kts | 243° |
| 2026-05-06 00:51 | 2.84252 | -60.69447 | 281 ft | 3 kts | 243° |
| 2026-05-06 00:51 | 2.84244 | -60.69464 | 278 ft | 3 kts | 243° |
| 2026-05-06 00:51 | 2.84235 | -60.69480 | 278 ft | 3 kts | 243° |
| 2026-05-06 00:52 | 2.84227 | -60.69496 | 278 ft | 2 kts | 243° |
| 2026-05-06 00:52 | 2.84220 | -60.69511 | 281 ft | 2 kts | 243° |
| 2026-05-06 00:52 | 2.84212 | -60.69526 | 278 ft | 2 kts | 243° |
| 2026-05-06 00:52 | 2.84205 | -60.69539 | 278 ft | 2 kts | 243° |
| 2026-05-06 00:53 | 2.84198 | -60.69553 | 283 ft | 2 kts | 242° |
| 2026-05-06 00:53 | 2.84192 | -60.69565 | 278 ft | 2 kts | 242° |
| 2026-05-06 00:53 | 2.84185 | -60.69577 | 278 ft | 2 kts | 242° |
| 2026-05-06 00:53 | 2.84168 | -60.69610 | 282 ft | 9 kts | 238° |
| 2026-05-06 00:54 | 2.84128 | -60.69663 | 269 ft | 9 kts | 233° |
| 2026-05-06 00:54 | 2.84090 | -60.69714 | 278 ft | 9 kts | 233° |
| 2026-05-06 00:54 | 2.84068 | -60.69744 | 278 ft | 5 kts | 233° |
| 2026-05-06 00:54 | 2.84051 | -60.69766 | 278 ft | 0 kts | 233° |
| 2026-05-06 00:56 | 2.84048 | -60.69773 | 282 ft | 3 kts | 249° |
| 2026-05-06 00:56 | 2.84040 | -60.69794 | 278 ft | 3 kts | 249° |
| 2026-05-06 00:56 | 2.84032 | -60.69815 | 279 ft | 3 kts | 249° |
| 2026-05-06 00:57 | 2.84024 | -60.69835 | 282 ft | 3 kts | 249° |
| 2026-05-06 00:57 | 2.84017 | -60.69855 | 278 ft | 3 kts | 249° |
| 2026-05-06 00:57 | 2.84009 | -60.69873 | 283 ft | 3 kts | 249° |
| 2026-05-06 00:57 | 2.84002 | -60.69892 | 278 ft | 3 kts | 249° |
| 2026-05-06 00:58 | 2.83995 | -60.69909 | 279 ft | 3 kts | 249° |
| 2026-05-06 00:58 | 2.83989 | -60.69926 | 279 ft | 3 kts | 249° |
| 2026-05-06 00:58 | 2.83983 | -60.69942 | 279 ft | 2 kts | 249° |
| 2026-05-06 00:58 | 2.83976 | -60.69959 | 279 ft | 3 kts | 247° |
| 2026-05-06 00:59 | 2.83965 | -60.69985 | 279 ft | 4 kts | 247° |
| 2026-05-06 00:59 | 2.84090 | -60.70065 | 279 ft | 0 kts | 63° |
| 2026-05-06 01:00 | 2.84211 | -60.69824 | 278 ft | 87 kts | 63° |
| 2026-05-06 01:00 | 2.84575 | -60.69000 | 294 ft | 168 kts | 73° |
| 2026-05-06 01:00 | 2.85054 | -60.67856 | 1161 ft | 174 kts | 66° |
| 2026-05-06 01:01 | 2.85671 | -60.66722 | 1973 ft | 200 kts | 62° |
| 2026-05-06 01:01 | 2.86387 | -60.65415 | 2516 ft | 222 kts | 62° |
| 2026-05-06 01:01 | 2.87138 | -60.64012 | 3234 ft | 239 kts | 62° |
| 2026-05-06 01:01 | 2.87808 | -60.62454 | 4049 ft | 251 kts | 79° |
| 2026-05-06 01:02 | 2.87692 | -60.60698 | 5186 ft | 260 kts | 105° |
| 2026-05-06 01:02 | 2.86789 | -60.59134 | 6298 ft | 271 kts | 130° |
| 2026-05-06 01:02 | 2.85187 | -60.58082 | 7320 ft | 284 kts | 158° |
| 2026-05-06 01:02 | 2.83213 | -60.57781 | 8444 ft | 290 kts | 176° |
| 2026-05-06 01:03 | 2.81194 | -60.57851 | 9570 ft | 292 kts | 181° |
| 2026-05-06 01:03 | 2.79151 | -60.58020 | 10545 ft | 298 kts | 182° |
| 2026-05-06 01:03 | 2.76999 | -60.58212 | 10937 ft | 324 kts | 182° |
| 2026-05-06 01:03 | 2.74705 | -60.58409 | 11607 ft | 336 kts | 182° |
| 2026-05-06 01:04 | 2.72383 | -60.58598 | 12493 ft | 339 kts | 182° |
| 2026-05-06 01:04 | 2.70023 | -60.58780 | 13424 ft | 343 kts | 182° |
| 2026-05-06 01:04 | 2.67626 | -60.58957 | 14266 ft | 347 kts | 182° |
| 2026-05-06 01:04 | 2.65200 | -60.59129 | 15048 ft | 352 kts | 182° |
| 2026-05-06 01:05 | 2.62735 | -60.59300 | 15828 ft | 356 kts | 181° |
| 2026-05-06 01:05 | 2.60250 | -60.59470 | 16602 ft | 360 kts | 181° |
| 2026-05-06 01:05 | 2.57728 | -60.59642 | 17369 ft | 365 kts | 181° |
| 2026-05-06 01:05 | 2.55179 | -60.59814 | 18112 ft | 370 kts | 181° |
| 2026-05-06 01:06 | 2.52595 | -60.59989 | 18765 ft | 374 kts | 181° |
| 2026-05-06 01:06 | 2.49974 | -60.60167 | 19414 ft | 378 kts | 181° |
| 2026-05-06 01:06 | 2.47340 | -60.60345 | 20076 ft | 381 kts | 181° |
| 2026-05-06 01:06 | 2.44674 | -60.60526 | 20713 ft | 385 kts | 181° |
| 2026-05-06 01:07 | 2.42018 | -60.60706 | 21317 ft | 389 kts | 181° |
| 2026-05-06 01:07 | 2.39303 | -60.60890 | 21916 ft | 393 kts | 181° |
| 2026-05-06 01:07 | 2.36556 | -60.61076 | 22510 ft | 397 kts | 181° |
| 2026-05-06 01:07 | 2.33751 | -60.61266 | 23090 ft | 402 kts | 181° |
| 2026-05-06 01:08 | 2.30984 | -60.61453 | 23630 ft | 406 kts | 182° |
| 2026-05-06 01:08 | 2.28146 | -60.61646 | 24114 ft | 409 kts | 182° |
| 2026-05-06 01:08 | 2.25302 | -60.61839 | 24632 ft | 410 kts | 182° |
| 2026-05-06 01:08 | 2.22442 | -60.62033 | 25141 ft | 412 kts | 182° |
| 2026-05-06 01:09 | 2.19580 | -60.62226 | 25619 ft | 414 kts | 182° |
| 2026-05-06 01:09 | 2.16696 | -60.62260 | 26079 ft | 415 kts | 174° |
| 2026-05-06 01:09 | 2.13810 | -60.62010 | 26545 ft | 417 kts | 172° |
| 2026-05-06 01:09 | 2.10950 | -60.61669 | 26999 ft | 420 kts | 171° |
| 2026-05-06 01:10 | 2.08034 | -60.61296 | 27451 ft | 422 kts | 171° |
| 2026-05-06 01:10 | 2.05108 | -60.60928 | 27898 ft | 425 kts | 171° |
| 2026-05-06 01:10 | 2.02165 | -60.60574 | 28338 ft | 427 kts | 171° |
| 2026-05-06 01:10 | 1.99192 | -60.60230 | 28765 ft | 430 kts | 172° |
| 2026-05-06 01:11 | 1.96213 | -60.59897 | 29179 ft | 433 kts | 172° |
| 2026-05-06 01:11 | 1.93207 | -60.59568 | 29582 ft | 435 kts | 172° |
| 2026-05-06 01:11 | 1.90187 | -60.59242 | 29970 ft | 438 kts | 172° |
| 2026-05-06 01:11 | 1.87148 | -60.58915 | 30314 ft | 441 kts | 172° |
| 2026-05-06 01:12 | 1.85128 | -60.58698 | 30527 ft | 442 kts | 172° |
| 2026-05-06 01:12 | 1.82059 | -60.58368 | 30840 ft | 445 kts | 172° |
| 2026-05-06 01:12 | 1.78968 | -60.58036 | 31133 ft | 448 kts | 172° |
| 2026-05-06 01:12 | 1.75862 | -60.57701 | 31414 ft | 451 kts | 172° |
| 2026-05-06 01:13 | 1.71711 | -60.57254 | 31805 ft | 454 kts | 172° |
| 2026-05-06 01:13 | 1.68559 | -60.56914 | 32089 ft | 457 kts | 172° |
| 2026-05-06 01:13 | 1.65387 | -60.56573 | 32408 ft | 458 kts | 172° |
| 2026-05-06 01:13 | 1.63288 | -60.56346 | 32672 ft | 458 kts | 172° |
| 2026-05-06 01:14 | 1.56979 | -60.55667 | 33589 ft | 455 kts | 172° |
| 2026-05-06 01:14 | 1.53835 | -60.55328 | 34009 ft | 455 kts | 172° |
| 2026-05-06 01:14 | 1.50686 | -60.54989 | 34380 ft | 454 kts | 172° |
| 2026-05-06 01:15 | 1.47550 | -60.54651 | 34788 ft | 453 kts | 172° |
| 2026-05-06 01:15 | 1.44420 | -60.54314 | 35188 ft | 451 kts | 172° |
| 2026-05-06 01:15 | 1.41307 | -60.53978 | 35579 ft | 449 kts | 172° |
| 2026-05-06 01:15 | 1.38210 | -60.53644 | 35937 ft | 448 kts | 173° |
| 2026-05-06 01:16 | 1.35107 | -60.53310 | 36305 ft | 447 kts | 173° |
| 2026-05-06 01:16 | 1.32012 | -60.52976 | 36675 ft | 446 kts | 173° |
| 2026-05-06 01:16 | 1.28933 | -60.52644 | 37028 ft | 444 kts | 173° |
| 2026-05-06 01:16 | 1.25855 | -60.52313 | 37352 ft | 444 kts | 173° |
| 2026-05-06 01:17 | 1.22785 | -60.51982 | 37661 ft | 443 kts | 173° |
| 2026-05-06 01:17 | 1.19717 | -60.51651 | 37997 ft | 442 kts | 173° |
| 2026-05-06 01:17 | 1.16663 | -60.51322 | 38324 ft | 441 kts | 173° |
| 2026-05-06 01:17 | 1.13649 | -60.50997 | 38614 ft | 441 kts | 173° |
| 2026-05-06 01:18 | 1.10596 | -60.50668 | 38864 ft | 440 kts | 173° |
| 2026-05-06 01:18 | 1.07542 | -60.50339 | 39027 ft | 442 kts | 173° |
| 2026-05-06 01:18 | 1.01390 | -60.49675 | 39014 ft | 445 kts | 173° |
| 2026-05-06 01:19 | 0.95251 | -60.49014 | 39004 ft | 439 kts | 173° |
| 2026-05-06 01:19 | 0.89200 | -60.48362 | 39015 ft | 437 kts | 173° |
| 2026-05-06 01:20 | 0.83143 | -60.47710 | 39013 ft | 437 kts | 173° |
| 2026-05-06 01:20 | 0.77097 | -60.47058 | 39014 ft | 436 kts | 173° |
| 2026-05-06 01:21 | 0.71091 | -60.46411 | 39017 ft | 437 kts | 173° |
| 2026-05-06 01:21 | 0.65041 | -60.45759 | 39015 ft | 437 kts | 173° |
| 2026-05-06 01:22 | 0.58981 | -60.45256 | 39016 ft | 438 kts | 175° |
| 2026-05-06 01:22 | 0.52880 | -60.44907 | 39017 ft | 439 kts | 175° |
| 2026-05-06 01:23 | 0.46796 | -60.44556 | 39017 ft | 440 kts | 175° |
| 2026-05-06 01:23 | 0.40673 | -60.44180 | 39013 ft | 441 kts | 175° |
| 2026-05-06 01:24 | 0.34533 | -60.43790 | 39015 ft | 442 kts | 175° |
| 2026-05-06 01:24 | 0.28379 | -60.43397 | 39014 ft | 443 kts | 175° |
| 2026-05-06 01:25 | 0.22218 | -60.43003 | 39012 ft | 443 kts | 175° |
| 2026-05-06 01:25 | 0.16049 | -60.42609 | 39013 ft | 444 kts | 175° |
| 2026-05-06 01:26 | 0.09876 | -60.42215 | 39012 ft | 444 kts | 175° |
| 2026-05-06 01:26 | 0.03710 | -60.41822 | 39016 ft | 443 kts | 175° |
| 2026-05-06 01:27 | -0.02411 | -60.41431 | 39016 ft | 443 kts | 175° |
| 2026-05-06 01:27 | -0.08558 | -60.41039 | 39014 ft | 443 kts | 175° |
| 2026-05-06 01:28 | -0.14727 | -60.40645 | 39018 ft | 443 kts | 175° |
| 2026-05-06 01:28 | -0.20840 | -60.40255 | 39017 ft | 443 kts | 175° |
| 2026-05-06 01:29 | -0.27031 | -60.39860 | 39018 ft | 443 kts | 175° |
| 2026-05-06 01:29 | -0.33154 | -60.39469 | 39017 ft | 443 kts | 175° |
| 2026-05-06 01:30 | -0.39310 | -60.39076 | 39016 ft | 443 kts | 175° |
| 2026-05-06 01:30 | -0.45471 | -60.38683 | 39016 ft | 443 kts | 175° |
| 2026-05-06 01:31 | -0.51628 | -60.38290 | 39018 ft | 443 kts | 175° |
| 2026-05-06 01:31 | -0.57789 | -60.37897 | 39016 ft | 443 kts | 175° |
| 2026-05-06 01:32 | -0.63942 | -60.37504 | 39015 ft | 444 kts | 175° |
| 2026-05-06 01:32 | -0.70072 | -60.37113 | 39017 ft | 444 kts | 175° |
| 2026-05-06 01:33 | -0.76238 | -60.36720 | 39017 ft | 444 kts | 175° |
| 2026-05-06 01:33 | -0.82404 | -60.36326 | 39018 ft | 444 kts | 175° |
| 2026-05-06 01:34 | -0.88581 | -60.35932 | 39017 ft | 444 kts | 175° |
| 2026-05-06 01:34 | -0.94754 | -60.35538 | 39017 ft | 444 kts | 175° |
| 2026-05-06 01:35 | -0.97857 | -60.35340 | 38691 ft | 450 kts | 175° |
| 2026-05-06 01:35 | -1.01000 | -60.35139 | 38116 ft | 451 kts | 175° |
| 2026-05-06 01:35 | -1.04117 | -60.34940 | 37501 ft | 449 kts | 175° |
| 2026-05-06 01:35 | -1.07196 | -60.34744 | 36887 ft | 449 kts | 174° |
| 2026-05-06 01:36 | -1.10311 | -60.34545 | 36311 ft | 447 kts | 174° |
| 2026-05-06 01:36 | -1.13399 | -60.34349 | 35874 ft | 442 kts | 174° |
| 2026-05-06 01:36 | -1.16466 | -60.34153 | 35386 ft | 439 kts | 174° |
| 2026-05-06 01:36 | -1.19510 | -60.33959 | 34915 ft | 436 kts | 174° |
| 2026-05-06 01:37 | -1.22529 | -60.33767 | 34431 ft | 434 kts | 174° |
| 2026-05-06 01:37 | -1.25543 | -60.33574 | 33953 ft | 431 kts | 174° |
| 2026-05-06 01:37 | -1.28533 | -60.33383 | 33425 ft | 429 kts | 174° |
| 2026-05-06 01:37 | -1.31502 | -60.33193 | 32948 ft | 426 kts | 174° |
| 2026-05-06 01:38 | -1.34447 | -60.33005 | 32475 ft | 422 kts | 174° |
| 2026-05-06 01:38 | -1.37369 | -60.32819 | 32021 ft | 419 kts | 174° |
| 2026-05-06 01:38 | -1.40267 | -60.32634 | 31571 ft | 416 kts | 174° |
| 2026-05-06 01:38 | -1.43155 | -60.32450 | 31130 ft | 413 kts | 174° |
| 2026-05-06 01:39 | -1.45983 | -60.32269 | 30693 ft | 411 kts | 174° |
| 2026-05-06 01:39 | -1.48837 | -60.32087 | 30238 ft | 409 kts | 174° |
| 2026-05-06 01:39 | -1.51662 | -60.31906 | 29746 ft | 406 kts | 174° |
| 2026-05-06 01:39 | -1.54482 | -60.31726 | 29247 ft | 403 kts | 174° |
| 2026-05-06 01:40 | -1.57263 | -60.31549 | 28754 ft | 399 kts | 174° |
| 2026-05-06 01:40 | -1.60028 | -60.31372 | 28280 ft | 396 kts | 174° |
| 2026-05-06 01:40 | -1.62771 | -60.31197 | 27814 ft | 392 kts | 174° |
| 2026-05-06 01:40 | -1.65481 | -60.31024 | 27354 ft | 389 kts | 174° |
| 2026-05-06 01:41 | -1.68174 | -60.30852 | 26894 ft | 386 kts | 174° |
| 2026-05-06 01:41 | -1.70847 | -60.30681 | 26442 ft | 384 kts | 174° |
| 2026-05-06 01:41 | -1.73503 | -60.30512 | 26000 ft | 381 kts | 174° |
| 2026-05-06 01:41 | -1.76148 | -60.30342 | 25523 ft | 380 kts | 174° |
| 2026-05-06 01:42 | -1.78779 | -60.30174 | 25068 ft | 378 kts | 174° |
| 2026-05-06 01:42 | -1.81399 | -60.30007 | 24592 ft | 377 kts | 174° |
| 2026-05-06 01:42 | -1.83983 | -60.29842 | 24142 ft | 376 kts | 174° |
| 2026-05-06 01:42 | -1.86583 | -60.29675 | 23681 ft | 375 kts | 174° |
| 2026-05-06 01:43 | -1.89190 | -60.29508 | 23148 ft | 374 kts | 174° |
| 2026-05-06 01:43 | -1.91776 | -60.29343 | 22663 ft | 371 kts | 174° |
| 2026-05-06 01:43 | -1.94339 | -60.29180 | 22187 ft | 368 kts | 174° |
| 2026-05-06 01:43 | -1.96887 | -60.29017 | 21726 ft | 365 kts | 174° |
| 2026-05-06 01:44 | -1.99414 | -60.28856 | 21259 ft | 362 kts | 174° |
| 2026-05-06 01:44 | -2.01914 | -60.28696 | 20809 ft | 359 kts | 174° |
| 2026-05-06 01:44 | -2.04399 | -60.28538 | 20361 ft | 357 kts | 174° |
| 2026-05-06 01:44 | -2.06875 | -60.28379 | 19910 ft | 354 kts | 174° |
| 2026-05-06 01:45 | -2.09302 | -60.28224 | 19448 ft | 353 kts | 174° |
| 2026-05-06 01:45 | -2.11743 | -60.28068 | 18989 ft | 351 kts | 174° |
| 2026-05-06 01:45 | -2.14179 | -60.27912 | 18538 ft | 350 kts | 174° |
| 2026-05-06 01:45 | -2.16615 | -60.27756 | 18046 ft | 349 kts | 174° |
| 2026-05-06 01:46 | -2.19024 | -60.27602 | 17561 ft | 346 kts | 174° |
| 2026-05-06 01:46 | -2.21422 | -60.27449 | 17098 ft | 343 kts | 174° |
| 2026-05-06 01:46 | -2.23793 | -60.27298 | 16641 ft | 340 kts | 174° |
| 2026-05-06 01:46 | -2.26146 | -60.27148 | 16197 ft | 337 kts | 174° |
| 2026-05-06 01:47 | -2.28483 | -60.26998 | 15758 ft | 335 kts | 174° |
| 2026-05-06 01:47 | -2.30794 | -60.26851 | 15314 ft | 332 kts | 174° |
| 2026-05-06 01:47 | -2.33094 | -60.26704 | 14884 ft | 330 kts | 174° |
| 2026-05-06 01:47 | -2.35382 | -60.26557 | 14432 ft | 329 kts | 174° |
| 2026-05-06 01:48 | -2.37658 | -60.26412 | 13987 ft | 327 kts | 174° |
| 2026-05-06 01:48 | -2.39933 | -60.26266 | 13503 ft | 326 kts | 174° |
| 2026-05-06 01:48 | -2.42184 | -60.26122 | 13044 ft | 323 kts | 174° |
| 2026-05-06 01:48 | -2.44398 | -60.25981 | 12599 ft | 321 kts | 174° |
| 2026-05-06 01:49 | -2.46620 | -60.25839 | 12166 ft | 318 kts | 173° |
| 2026-05-06 01:49 | -2.48823 | -60.25699 | 11728 ft | 315 kts | 173° |
| 2026-05-06 01:49 | -2.51004 | -60.25559 | 11293 ft | 313 kts | 173° |
| 2026-05-06 01:49 | -2.53166 | -60.25421 | 10869 ft | 311 kts | 173° |
| 2026-05-06 01:50 | -2.55323 | -60.25283 | 10446 ft | 309 kts | 173° |
| 2026-05-06 01:50 | -2.57459 | -60.25147 | 10173 ft | 301 kts | 173° |
| 2026-05-06 01:50 | -2.59525 | -60.25016 | 9913 ft | 294 kts | 173° |
| 2026-05-06 01:50 | -2.61517 | -60.24890 | 9620 ft | 287 kts | 173° |
| 2026-05-06 01:51 | -2.63501 | -60.24762 | 9156 ft | 289 kts | 173° |
| 2026-05-06 01:51 | -2.65509 | -60.24632 | 8729 ft | 289 kts | 173° |
| 2026-05-06 01:51 | -2.67510 | -60.24504 | 8337 ft | 287 kts | 173° |
| 2026-05-06 01:51 | -2.69493 | -60.24377 | 7950 ft | 285 kts | 173° |
| 2026-05-06 01:52 | -2.71464 | -60.24251 | 7577 ft | 283 kts | 173° |
| 2026-05-06 01:52 | -2.73428 | -60.24125 | 7198 ft | 282 kts | 173° |
| 2026-05-06 01:52 | -2.75342 | -60.24002 | 6834 ft | 280 kts | 172° |
| 2026-05-06 01:52 | -2.77289 | -60.23877 | 6464 ft | 279 kts | 172° |
| 2026-05-06 01:53 | -2.79226 | -60.23753 | 6056 ft | 278 kts | 172° |
| 2026-05-06 01:53 | -2.81129 | -60.23631 | 5680 ft | 276 kts | 172° |
| 2026-05-06 01:53 | -2.83043 | -60.23509 | 5311 ft | 275 kts | 173° |
| 2026-05-06 01:53 | -2.84966 | -60.23386 | 4937 ft | 273 kts | 173° |
| 2026-05-06 01:54 | -2.86828 | -60.23267 | 4570 ft | 271 kts | 173° |
| 2026-05-06 01:54 | -2.88694 | -60.23148 | 4366 ft | 263 kts | 173° |
| 2026-05-06 01:54 | -2.90491 | -60.23034 | 4223 ft | 253 kts | 172° |
| 2026-05-06 01:54 | -2.92216 | -60.22925 | 4106 ft | 244 kts | 172° |
| 2026-05-06 01:55 | -2.93881 | -60.22821 | 3975 ft | 236 kts | 173° |
| 2026-05-06 01:55 | -2.95511 | -60.22800 | 3800 ft | 231 kts | 176° |
| 2026-05-06 01:55 | -2.97095 | -60.22813 | 3659 ft | 223 kts | 176° |
| 2026-05-06 01:55 | -2.98609 | -60.22825 | 3506 ft | 212 kts | 176° |
| 2026-05-06 01:56 | -3.00045 | -60.22834 | 3349 ft | 200 kts | 176° |
| 2026-05-06 01:56 | -3.01377 | -60.22841 | 3195 ft | 182 kts | 175° |
| 2026-05-06 01:56 | -3.02501 | -60.22583 | 3006 ft | 155 kts | 134° |
| 2026-05-06 01:56 | -3.02938 | -60.21685 | 2983 ft | 145 kts | 101° |
| 2026-05-06 01:57 | -3.03251 | -60.20752 | 2962 ft | 137 kts | 110° |
| 2026-05-06 01:57 | -3.03521 | -60.19848 | 2825 ft | 136 kts | 98° |
| 2026-05-06 01:57 | -3.03644 | -60.18922 | 2661 ft | 132 kts | 96° |
| 2026-05-06 01:57 | -3.03752 | -60.18033 | 2492 ft | 127 kts | 94° |
| 2026-05-06 01:58 | -3.03806 | -60.17151 | 2352 ft | 128 kts | 91° |
| 2026-05-06 01:58 | -3.03827 | -60.16255 | 2184 ft | 129 kts | 90° |
| 2026-05-06 01:58 | -3.03835 | -60.15358 | 2019 ft | 129 kts | 89° |
| 2026-05-06 01:58 | -3.03839 | -60.14458 | 1847 ft | 130 kts | 89° |
| 2026-05-06 01:59 | -3.03840 | -60.13846 | 1741 ft | 130 kts | 89° |
| 2026-05-06 01:59 | -3.03842 | -60.12949 | 1568 ft | 130 kts | 89° |
| 2026-05-06 01:59 | -3.03844 | -60.12047 | 1384 ft | 130 kts | 89° |
| 2026-05-06 01:59 | -3.03846 | -60.11129 | 1230 ft | 133 kts | 89° |
| 2026-05-06 02:00 | -3.03849 | -60.09902 | 997 ft | 131 kts | 89° |
| 2026-05-06 02:00 | -3.03850 | -60.09290 | 893 ft | 133 kts | 89° |
| 2026-05-06 02:00 | -3.03852 | -60.08058 | 666 ft | 134 kts | 89° |
| 2026-05-06 02:00 | -3.03854 | -60.07429 | 554 ft | 134 kts | 89° |
| 2026-05-06 02:01 | -3.03859 | -60.06511 | 373 ft | 134 kts | 89° |
| 2026-05-06 02:01 | -3.03855 | -60.05588 | 269 ft | 128 kts | 90° |
| 2026-05-06 02:01 | -3.03859 | -60.04849 | 268 ft | 84 kts | 90° |
| 2026-05-06 02:01 | -3.03861 | -60.04353 | 268 ft | 65 kts | 90° |
| 2026-05-06 02:02 | -3.03861 | -60.03979 | 268 ft | 42 kts | 90° |
| 2026-05-06 02:02 | -3.03841 | -60.03784 | 267 ft | 23 kts | 47° |
| 2026-05-06 02:02 | -3.03806 | -60.03767 | 268 ft | 3 kts | 3° |
| 2026-05-06 02:02 | -3.03782 | -60.03769 | 268 ft | 4 kts | 352° |
| 2026-05-06 02:03 | -3.03756 | -60.03773 | 268 ft | 4 kts | 350° |
| 2026-05-06 02:03 | -3.03731 | -60.03778 | 268 ft | 4 kts | 346° |
| 2026-05-06 02:03 | -3.03712 | -60.03794 | 268 ft | 4 kts | 310° |
| 2026-05-06 02:03 | -3.03696 | -60.03814 | 268 ft | 4 kts | 310° |
| 2026-05-06 02:04 | -3.03686 | -60.03836 | 268 ft | 4 kts | 288° |
| 2026-05-06 02:04 | -3.03679 | -60.03859 | 232 ft | 3 kts | 288° |
| 2026-05-06 02:04 | -3.03673 | -60.03883 | 268 ft | 3 kts | 282° |
| 2026-05-06 02:04 | -3.03668 | -60.03906 | 267 ft | 3 kts | 282° |
| 2026-05-06 02:05 | -3.03662 | -60.03929 | 267 ft | 3 kts | 287° |
| 2026-05-06 02:05 | -3.03655 | -60.03951 | 267 ft | 3 kts | 287° |
| 2026-05-06 02:05 | -3.03649 | -60.03972 | 267 ft | 3 kts | 287° |
| 2026-05-06 02:05 | -3.03643 | -60.03993 | 267 ft | 3 kts | 287° |
| 2026-05-06 02:06 | -3.03637 | -60.04013 | 267 ft | 3 kts | 285° |
| 2026-05-06 02:06 | -3.03632 | -60.04033 | 267 ft | 3 kts | 285° |
| 2026-05-06 02:06 | -3.03626 | -60.04053 | 267 ft | 3 kts | 285° |
| 2026-05-06 02:06 | -3.03621 | -60.04071 | 267 ft | 3 kts | 285° |
| 2026-05-06 02:07 | -3.03617 | -60.04090 | 267 ft | 3 kts | 284° |
| 2026-05-06 02:07 | -3.03612 | -60.04107 | 267 ft | 3 kts | 284° |
| 2026-05-06 02:07 | -3.03608 | -60.04124 | 267 ft | 2 kts | 284° |
| 2026-05-06 02:07 | -3.03604 | -60.04140 | 267 ft | 2 kts | 284° |
| 2026-05-06 02:08 | -3.03600 | -60.04156 | 267 ft | 2 kts | 284° |
| 2026-05-06 02:08 | -3.03596 | -60.04171 | 267 ft | 2 kts | 284° |
| 2026-05-06 02:08 | -3.03572 | -60.04230 | 267 ft | 14 kts | 296° |
| 2026-05-06 02:08 | -3.03515 | -60.04307 | 267 ft | 14 kts | 319° |
| 2026-05-06 02:09 | -3.03440 | -60.04357 | 267 ft | 13 kts | 334° |
| 2026-05-06 02:09 | -3.03355 | -60.04384 | 267 ft | 13 kts | 343° |
| 2026-05-06 02:09 | -3.03330 | -60.04423 | 267 ft | 6 kts | 259° |
| 2026-05-06 02:09 | -3.03338 | -60.04466 | 267 ft | 6 kts | 266° |
| 2026-05-06 02:10 | -3.03328 | -60.04483 | 267 ft | 2 kts | 315° |
| 2026-05-06 02:10 | -3.03313 | -60.04489 | 267 ft | 3 kts | 348° |
| 2026-05-06 02:10 | -3.03294 | -60.04492 | 267 ft | 3 kts | 351° |
| 2026-05-06 02:10 | -3.03276 | -60.04495 | 267 ft | 3 kts | 349° |
| 2026-05-06 02:11 | -3.03260 | -60.04498 | 267 ft | 0 kts | 349° |
| 2026-05-06 02:11 | -3.03259 | -60.04499 | 267 ft | 0 kts | 349° |